sensor_id;sensor_type;location;lat;lon;timestamp;P1;durP1;ratioP1;P2;durP2;ratioP2
55833;SDS011;41761;43.004;-0.066;2022-11-02T00:01:29;19.80;;;7.00;;
55833;SDS011;41761;43.004;-0.066;2022-11-02T00:06:24;15.48;;;6.53;;
55833;SDS011;41761;43.004;-0.066;2022-11-02T00:08:50;22.85;;;7.60;;
55833;SDS011;41761;43.004;-0.066;2022-11-02T00:11:17;19.90;;;6.35;;
55833;SDS011;41761;43.004;-0.066;2022-11-02T00:13:43;23.63;;;7.85;;
55833;SDS011;41761;43.004;-0.066;2022-11-02T00:16:09;27.58;;;6.57;;
55833;SDS011;41761;43.004;-0.066;2022-11-02T00:18:38;23.52;;;7.03;;
55833;SDS011;41761;43.004;-0.066;2022-11-02T00:21:05;28.52;;;6.43;;
55833;SDS011;41761;43.004;-0.066;2022-11-02T00:23:32;19.55;;;6.97;;
55833;SDS011;41761;43.004;-0.066;2022-11-02T00:25:58;16.60;;;7.00;;
55833;SDS011;41761;43.004;-0.066;2022-11-02T00:28:26;23.85;;;7.82;;
55833;SDS011;41761;43.004;-0.066;2022-11-02T00:30:53;22.90;;;7.10;;
55833;SDS011;41761;43.004;-0.066;2022-11-02T00:33:19;32.08;;;7.15;;
55833;SDS011;41761;43.004;-0.066;2022-11-02T00:35:45;21.92;;;7.28;;
55833;SDS011;41761;43.004;-0.066;2022-11-02T00:38:11;21.00;;;7.28;;
55833;SDS011;41761;43.004;-0.066;2022-11-02T00:40:38;20.42;;;7.00;;
55833;SDS011;41761;43.004;-0.066;2022-11-02T00:43:04;24.23;;;7.80;;
55833;SDS011;41761;43.004;-0.066;2022-11-02T00:45:30;23.85;;;7.95;;
55833;SDS011;41761;43.004;-0.066;2022-11-02T00:47:56;20.70;;;7.30;;
55833;SDS011;41761;43.004;-0.066;2022-11-02T00:50:23;24.25;;;7.38;;
55833;SDS011;41761;43.004;-0.066;2022-11-02T00:52:49;28.85;;;7.95;;
55833;SDS011;41761;43.004;-0.066;2022-11-02T00:55:15;28.02;;;8.93;;
55833;SDS011;41761;43.004;-0.066;2022-11-02T00:57:42;27.13;;;7.70;;
55833;SDS011;41761;43.004;-0.066;2022-11-02T01:00:09;34.63;;;8.10;;
55833;SDS011;41761;43.004;-0.066;2022-11-02T01:02:35;31.65;;;7.68;;
55833;SDS011;41761;43.004;-0.066;2022-11-02T01:05:02;20.90;;;7.97;;
55833;SDS011;41761;43.004;-0.066;2022-11-02T01:07:28;19.20;;;7.93;;
55833;SDS011;41761;43.004;-0.066;2022-11-02T01:09:55;21.40;;;7.72;;
55833;SDS011;41761;43.004;-0.066;2022-11-02T01:12:21;23.83;;;8.93;;
55833;SDS011;41761;43.004;-0.066;2022-11-02T01:14:47;31.20;;;9.68;;
55833;SDS011;41761;43.004;-0.066;2022-11-02T01:17:14;30.58;;;8.68;;
55833;SDS011;41761;43.004;-0.066;2022-11-02T01:19:40;27.05;;;8.90;;
55833;SDS011;41761;43.004;-0.066;2022-11-02T01:22:07;23.48;;;8.65;;
55833;SDS011;41761;43.004;-0.066;2022-11-02T01:24:33;32.78;;;8.55;;
55833;SDS011;41761;43.004;-0.066;2022-11-02T01:26:59;26.27;;;9.13;;
55833;SDS011;41761;43.004;-0.066;2022-11-02T01:29:25;28.35;;;7.60;;
55833;SDS011;41761;43.004;-0.066;2022-11-02T01:31:52;26.00;;;9.80;;
55833;SDS011;41761;43.004;-0.066;2022-11-02T01:34:18;28.90;;;9.10;;
55833;SDS011;41761;43.004;-0.066;2022-11-02T01:36:44;26.17;;;8.05;;
55833;SDS011;41761;43.004;-0.066;2022-11-02T01:39:12;25.88;;;9.10;;
55833;SDS011;41761;43.004;-0.066;2022-11-02T01:41:38;24.60;;;9.65;;
55833;SDS011;41761;43.004;-0.066;2022-11-02T01:44:04;26.63;;;8.25;;
55833;SDS011;41761;43.004;-0.066;2022-11-02T01:46:35;26.65;;;10.10;;
55833;SDS011;41761;43.004;-0.066;2022-11-02T01:49:15;28.35;;;8.30;;
55833;SDS011;41761;43.004;-0.066;2022-11-02T01:54:11;32.60;;;9.70;;
55833;SDS011;41761;43.004;-0.066;2022-11-02T01:56:38;30.95;;;8.95;;
55833;SDS011;41761;43.004;-0.066;2022-11-02T01:59:05;25.65;;;8.88;;
55833;SDS011;41761;43.004;-0.066;2022-11-02T02:01:33;29.40;;;8.98;;
55833;SDS011;41761;43.004;-0.066;2022-11-02T02:03:59;28.42;;;8.60;;
55833;SDS011;41761;43.004;-0.066;2022-11-02T02:06:26;22.73;;;9.00;;
55833;SDS011;41761;43.004;-0.066;2022-11-02T02:08:52;26.52;;;9.30;;
55833;SDS011;41761;43.004;-0.066;2022-11-02T02:11:30;33.78;;;8.50;;
55833;SDS011;41761;43.004;-0.066;2022-11-02T02:14:07;35.88;;;9.52;;
55833;SDS011;41761;43.004;-0.066;2022-11-02T02:16:42;45.28;;;9.15;;
55833;SDS011;41761;43.004;-0.066;2022-11-02T02:21:53;33.78;;;9.13;;
55833;SDS011;41761;43.004;-0.066;2022-11-02T02:29:30;37.65;;;9.60;;
55833;SDS011;41761;43.004;-0.066;2022-11-02T02:32:08;31.10;;;9.90;;
55833;SDS011;41761;43.004;-0.066;2022-11-02T02:34:41;31.00;;;9.20;;
55833;SDS011;41761;43.004;-0.066;2022-11-02T02:42:23;38.03;;;10.05;;
55833;SDS011;41761;43.004;-0.066;2022-11-02T02:47:29;28.48;;;9.23;;
55833;SDS011;41761;43.004;-0.066;2022-11-02T02:50:00;45.42;;;9.43;;
55833;SDS011;41761;43.004;-0.066;2022-11-02T02:52:27;32.83;;;8.50;;
55833;SDS011;41761;43.004;-0.066;2022-11-02T02:54:55;25.67;;;9.23;;
55833;SDS011;41761;43.004;-0.066;2022-11-02T02:57:23;33.72;;;9.63;;
55833;SDS011;41761;43.004;-0.066;2022-11-02T02:59:50;35.63;;;9.52;;
55833;SDS011;41761;43.004;-0.066;2022-11-02T03:04:45;33.38;;;8.68;;
55833;SDS011;41761;43.004;-0.066;2022-11-02T03:07:12;40.78;;;10.02;;
55833;SDS011;41761;43.004;-0.066;2022-11-02T03:09:41;31.75;;;9.68;;
55833;SDS011;41761;43.004;-0.066;2022-11-02T03:12:16;35.03;;;9.80;;
55833;SDS011;41761;43.004;-0.066;2022-11-02T03:17:16;45.28;;;10.38;;
55833;SDS011;41761;43.004;-0.066;2022-11-02T03:24:46;30.50;;;9.18;;
55833;SDS011;41761;43.004;-0.066;2022-11-02T03:29:52;35.05;;;11.95;;
55833;SDS011;41761;43.004;-0.066;2022-11-02T03:32:21;36.08;;;10.02;;
55833;SDS011;41761;43.004;-0.066;2022-11-02T03:34:51;30.08;;;8.80;;
55833;SDS011;41761;43.004;-0.066;2022-11-02T03:37:27;33.72;;;9.32;;
55833;SDS011;41761;43.004;-0.066;2022-11-02T03:39:56;32.70;;;9.75;;
55833;SDS011;41761;43.004;-0.066;2022-11-02T03:42:25;45.53;;;10.43;;
55833;SDS011;41761;43.004;-0.066;2022-11-02T03:44:56;35.25;;;9.30;;
55833;SDS011;41761;43.004;-0.066;2022-11-02T03:47:24;35.40;;;10.47;;
55833;SDS011;41761;43.004;-0.066;2022-11-02T03:49:50;36.72;;;10.32;;
55833;SDS011;41761;43.004;-0.066;2022-11-02T03:52:22;38.10;;;11.10;;
55833;SDS011;41761;43.004;-0.066;2022-11-02T03:54:59;40.08;;;11.80;;
55833;SDS011;41761;43.004;-0.066;2022-11-02T03:57:28;40.28;;;11.50;;
55833;SDS011;41761;43.004;-0.066;2022-11-02T04:00:07;39.83;;;10.65;;
55833;SDS011;41761;43.004;-0.066;2022-11-02T04:02:34;51.30;;;11.77;;
55833;SDS011;41761;43.004;-0.066;2022-11-02T04:05:01;60.47;;;13.20;;
55833;SDS011;41761;43.004;-0.066;2022-11-02T04:07:28;50.17;;;12.70;;
55833;SDS011;41761;43.004;-0.066;2022-11-02T04:10:17;58.30;;;13.48;;
55833;SDS011;41761;43.004;-0.066;2022-11-02T04:12:43;57.25;;;13.70;;
55833;SDS011;41761;43.004;-0.066;2022-11-02T04:15:28;67.75;;;20.50;;
55833;SDS011;41761;43.004;-0.066;2022-11-02T04:17:54;65.03;;;21.08;;
55833;SDS011;41761;43.004;-0.066;2022-11-02T04:20:40;52.47;;;18.05;;
55833;SDS011;41761;43.004;-0.066;2022-11-02T04:23:06;54.58;;;17.13;;
55833;SDS011;41761;43.004;-0.066;2022-11-02T04:25:52;62.88;;;19.80;;
55833;SDS011;41761;43.004;-0.066;2022-11-02T04:28:18;66.53;;;23.08;;
55833;SDS011;41761;43.004;-0.066;2022-11-02T04:30:45;57.25;;;24.33;;
55833;SDS011;41761;43.004;-0.066;2022-11-02T04:33:11;55.83;;;23.38;;
55833;SDS011;41761;43.004;-0.066;2022-11-02T04:35:57;37.90;;;13.35;;
55833;SDS011;41761;43.004;-0.066;2022-11-02T04:38:24;38.97;;;12.88;;
55833;SDS011;41761;43.004;-0.066;2022-11-02T04:41:15;41.63;;;11.00;;
55833;SDS011;41761;43.004;-0.066;2022-11-02T04:44:00;40.85;;;9.45;;
55833;SDS011;41761;43.004;-0.066;2022-11-02T04:46:27;49.53;;;11.75;;
55833;SDS011;41761;43.004;-0.066;2022-11-02T04:48:53;37.45;;;9.68;;
55833;SDS011;41761;43.004;-0.066;2022-11-02T04:51:21;39.13;;;11.02;;
55833;SDS011;41761;43.004;-0.066;2022-11-02T04:53:47;38.30;;;10.43;;
55833;SDS011;41761;43.004;-0.066;2022-11-02T04:56:14;38.13;;;10.80;;
55833;SDS011;41761;43.004;-0.066;2022-11-02T04:58:40;36.72;;;8.98;;
55833;SDS011;41761;43.004;-0.066;2022-11-02T05:01:07;34.55;;;10.20;;
55833;SDS011;41761;43.004;-0.066;2022-11-02T05:03:34;26.27;;;8.02;;
55833;SDS011;41761;43.004;-0.066;2022-11-02T05:06:00;37.88;;;10.35;;
55833;SDS011;41761;43.004;-0.066;2022-11-02T05:08:27;41.00;;;9.88;;
55833;SDS011;41761;43.004;-0.066;2022-11-02T05:10:54;32.05;;;9.27;;
55833;SDS011;41761;43.004;-0.066;2022-11-02T05:13:20;46.00;;;9.48;;
55833;SDS011;41761;43.004;-0.066;2022-11-02T05:15:46;37.17;;;10.40;;
55833;SDS011;41761;43.004;-0.066;2022-11-02T05:18:16;29.30;;;7.97;;
55833;SDS011;41761;43.004;-0.066;2022-11-02T05:20:42;26.20;;;7.88;;
55833;SDS011;41761;43.004;-0.066;2022-11-02T05:23:15;36.20;;;9.40;;
55833;SDS011;41761;43.004;-0.066;2022-11-02T05:25:41;30.70;;;7.70;;
55833;SDS011;41761;43.004;-0.066;2022-11-02T05:28:07;39.97;;;8.68;;
55833;SDS011;41761;43.004;-0.066;2022-11-02T05:30:33;20.25;;;7.38;;
55833;SDS011;41761;43.004;-0.066;2022-11-02T05:32:59;25.42;;;7.55;;
55833;SDS011;41761;43.004;-0.066;2022-11-02T05:35:26;32.80;;;8.82;;
55833;SDS011;41761;43.004;-0.066;2022-11-02T05:37:53;30.38;;;8.10;;
55833;SDS011;41761;43.004;-0.066;2022-11-02T05:40:20;31.42;;;9.02;;
55833;SDS011;41761;43.004;-0.066;2022-11-02T05:42:46;31.45;;;8.75;;
55833;SDS011;41761;43.004;-0.066;2022-11-02T05:45:12;28.58;;;8.93;;
55833;SDS011;41761;43.004;-0.066;2022-11-02T05:47:38;20.60;;;8.65;;
55833;SDS011;41761;43.004;-0.066;2022-11-02T05:50:04;24.30;;;8.13;;
55833;SDS011;41761;43.004;-0.066;2022-11-02T05:52:31;25.77;;;8.80;;
55833;SDS011;41761;43.004;-0.066;2022-11-02T05:55:00;27.52;;;8.30;;
55833;SDS011;41761;43.004;-0.066;2022-11-02T05:57:26;22.45;;;7.47;;
55833;SDS011;41761;43.004;-0.066;2022-11-02T05:59:52;21.77;;;7.05;;
55833;SDS011;41761;43.004;-0.066;2022-11-02T06:02:18;17.33;;;6.78;;
55833;SDS011;41761;43.004;-0.066;2022-11-02T06:04:44;24.10;;;7.80;;
55833;SDS011;41761;43.004;-0.066;2022-11-02T06:07:11;19.70;;;7.15;;
55833;SDS011;41761;43.004;-0.066;2022-11-02T06:09:37;18.83;;;7.07;;
55833;SDS011;41761;43.004;-0.066;2022-11-02T06:12:03;15.20;;;6.75;;
55833;SDS011;41761;43.004;-0.066;2022-11-02T06:14:29;19.77;;;6.38;;
55833;SDS011;41761;43.004;-0.066;2022-11-02T06:16:56;28.85;;;8.63;;
55833;SDS011;41761;43.004;-0.066;2022-11-02T06:19:22;25.55;;;8.23;;
55833;SDS011;41761;43.004;-0.066;2022-11-02T06:21:48;32.63;;;8.75;;
55833;SDS011;41761;43.004;-0.066;2022-11-02T06:24:14;23.25;;;8.23;;
55833;SDS011;41761;43.004;-0.066;2022-11-02T06:26:40;26.10;;;7.43;;
55833;SDS011;41761;43.004;-0.066;2022-11-02T06:29:07;24.05;;;7.65;;
55833;SDS011;41761;43.004;-0.066;2022-11-02T06:31:33;31.58;;;7.97;;
55833;SDS011;41761;43.004;-0.066;2022-11-02T06:33:59;24.90;;;8.25;;
55833;SDS011;41761;43.004;-0.066;2022-11-02T06:36:25;18.15;;;6.78;;
55833;SDS011;41761;43.004;-0.066;2022-11-02T06:38:51;46.03;;;8.70;;
55833;SDS011;41761;43.004;-0.066;2022-11-02T06:41:17;26.70;;;8.20;;
55833;SDS011;41761;43.004;-0.066;2022-11-02T06:43:44;31.52;;;8.70;;
55833;SDS011;41761;43.004;-0.066;2022-11-02T06:46:10;27.13;;;8.27;;
55833;SDS011;41761;43.004;-0.066;2022-11-02T06:48:36;23.52;;;8.77;;
55833;SDS011;41761;43.004;-0.066;2022-11-02T06:51:03;47.80;;;8.20;;
55833;SDS011;41761;43.004;-0.066;2022-11-02T06:53:30;16.05;;;6.85;;
55833;SDS011;41761;43.004;-0.066;2022-11-02T06:55:57;17.30;;;6.25;;
55833;SDS011;41761;43.004;-0.066;2022-11-02T06:58:23;19.15;;;6.25;;
55833;SDS011;41761;43.004;-0.066;2022-11-02T07:00:54;26.17;;;7.03;;
55833;SDS011;41761;43.004;-0.066;2022-11-02T07:03:21;26.67;;;7.53;;
55833;SDS011;41761;43.004;-0.066;2022-11-02T07:05:51;27.80;;;7.38;;
55833;SDS011;41761;43.004;-0.066;2022-11-02T07:08:17;20.15;;;7.43;;
55833;SDS011;41761;43.004;-0.066;2022-11-02T07:10:43;22.75;;;6.65;;
55833;SDS011;41761;43.004;-0.066;2022-11-02T07:13:10;23.27;;;6.20;;
55833;SDS011;41761;43.004;-0.066;2022-11-02T07:15:36;42.20;;;7.82;;
55833;SDS011;41761;43.004;-0.066;2022-11-02T07:18:03;46.33;;;10.48;;
55833;SDS011;41761;43.004;-0.066;2022-11-02T07:20:30;68.65;;;7.97;;
55833;SDS011;41761;43.004;-0.066;2022-11-02T07:22:58;93.55;;;9.98;;
55833;SDS011;41761;43.004;-0.066;2022-11-02T07:25:26;80.30;;;9.05;;
55833;SDS011;41761;43.004;-0.066;2022-11-02T07:27:52;32.25;;;8.80;;
55833;SDS011;41761;43.004;-0.066;2022-11-02T07:30:19;28.05;;;8.18;;
55833;SDS011;41761;43.004;-0.066;2022-11-02T07:32:45;26.10;;;7.72;;
55833;SDS011;41761;43.004;-0.066;2022-11-02T07:35:12;35.00;;;9.95;;
55833;SDS011;41761;43.004;-0.066;2022-11-02T07:37:39;36.30;;;9.50;;
55833;SDS011;41761;43.004;-0.066;2022-11-02T07:40:06;35.22;;;11.52;;
55833;SDS011;41761;43.004;-0.066;2022-11-02T07:42:34;29.40;;;11.10;;
55833;SDS011;41761;43.004;-0.066;2022-11-02T07:45:00;25.83;;;9.68;;
55833;SDS011;41761;43.004;-0.066;2022-11-02T07:47:27;27.48;;;10.38;;
55833;SDS011;41761;43.004;-0.066;2022-11-02T07:49:57;47.90;;;15.38;;
55833;SDS011;41761;43.004;-0.066;2022-11-02T07:52:24;75.63;;;40.80;;
55833;SDS011;41761;43.004;-0.066;2022-11-02T07:54:51;77.13;;;37.20;;
55833;SDS011;41761;43.004;-0.066;2022-11-02T07:57:17;80.88;;;34.58;;
55833;SDS011;41761;43.004;-0.066;2022-11-02T07:59:44;54.35;;;27.42;;
55833;SDS011;41761;43.004;-0.066;2022-11-02T08:02:10;37.85;;;19.20;;
55833;SDS011;41761;43.004;-0.066;2022-11-02T08:04:38;46.25;;;22.60;;
55833;SDS011;41761;43.004;-0.066;2022-11-02T08:07:04;37.95;;;15.98;;
55833;SDS011;41761;43.004;-0.066;2022-11-02T08:09:32;33.03;;;17.75;;
55833;SDS011;41761;43.004;-0.066;2022-11-02T08:11:58;34.63;;;15.02;;
55833;SDS011;41761;43.004;-0.066;2022-11-02T08:14:25;25.45;;;11.57;;
55833;SDS011;41761;43.004;-0.066;2022-11-02T08:16:55;28.75;;;12.07;;
55833;SDS011;41761;43.004;-0.066;2022-11-02T08:19:21;27.88;;;10.77;;
55833;SDS011;41761;43.004;-0.066;2022-11-02T08:21:47;18.90;;;9.20;;
55833;SDS011;41761;43.004;-0.066;2022-11-02T08:24:16;18.23;;;9.38;;
55833;SDS011;41761;43.004;-0.066;2022-11-02T08:26:42;15.40;;;8.00;;
55833;SDS011;41761;43.004;-0.066;2022-11-02T08:29:08;21.20;;;9.65;;
55833;SDS011;41761;43.004;-0.066;2022-11-02T08:31:34;20.27;;;9.68;;
55833;SDS011;41761;43.004;-0.066;2022-11-02T08:34:01;23.00;;;9.48;;
55833;SDS011;41761;43.004;-0.066;2022-11-02T08:36:27;23.33;;;9.65;;
55833;SDS011;41761;43.004;-0.066;2022-11-02T08:38:53;16.42;;;9.00;;
55833;SDS011;41761;43.004;-0.066;2022-11-02T08:41:20;18.13;;;9.88;;
55833;SDS011;41761;43.004;-0.066;2022-11-02T08:43:53;25.70;;;9.40;;
55833;SDS011;41761;43.004;-0.066;2022-11-02T08:46:21;18.35;;;9.60;;
55833;SDS011;41761;43.004;-0.066;2022-11-02T08:48:54;20.65;;;9.43;;
55833;SDS011;41761;43.004;-0.066;2022-11-02T08:51:20;23.60;;;8.95;;
55833;SDS011;41761;43.004;-0.066;2022-11-02T08:53:46;19.58;;;8.93;;
55833;SDS011;41761;43.004;-0.066;2022-11-02T08:56:12;20.65;;;9.45;;
55833;SDS011;41761;43.004;-0.066;2022-11-02T08:58:39;19.35;;;9.05;;
55833;SDS011;41761;43.004;-0.066;2022-11-02T09:01:05;17.50;;;8.77;;
55833;SDS011;41761;43.004;-0.066;2022-11-02T09:03:31;27.17;;;9.48;;
55833;SDS011;41761;43.004;-0.066;2022-11-02T09:05:58;25.88;;;8.68;;
55833;SDS011;41761;43.004;-0.066;2022-11-02T09:08:28;18.55;;;9.30;;
55833;SDS011;41761;43.004;-0.066;2022-11-02T09:10:59;25.40;;;9.05;;
55833;SDS011;41761;43.004;-0.066;2022-11-02T09:13:25;24.20;;;9.05;;
55833;SDS011;41761;43.004;-0.066;2022-11-02T09:15:53;18.42;;;8.52;;
55833;SDS011;41761;43.004;-0.066;2022-11-02T09:18:19;20.92;;;8.60;;
55833;SDS011;41761;43.004;-0.066;2022-11-02T09:20:46;25.77;;;8.20;;
55833;SDS011;41761;43.004;-0.066;2022-11-02T09:23:16;21.67;;;8.57;;
55833;SDS011;41761;43.004;-0.066;2022-11-02T09:25:43;25.13;;;9.50;;
55833;SDS011;41761;43.004;-0.066;2022-11-02T09:28:09;24.10;;;7.82;;
55833;SDS011;41761;43.004;-0.066;2022-11-02T09:30:35;23.42;;;7.85;;
55833;SDS011;41761;43.004;-0.066;2022-11-02T09:33:05;22.77;;;8.88;;
55833;SDS011;41761;43.004;-0.066;2022-11-02T09:35:32;23.85;;;8.07;;
55833;SDS011;41761;43.004;-0.066;2022-11-02T09:37:58;23.98;;;7.70;;
55833;SDS011;41761;43.004;-0.066;2022-11-02T09:40:41;20.80;;;8.63;;
55833;SDS011;41761;43.004;-0.066;2022-11-02T09:46:05;31.23;;;7.88;;
55833;SDS011;41761;43.004;-0.066;2022-11-02T09:48:42;20.17;;;6.82;;
55833;SDS011;41761;43.004;-0.066;2022-11-02T09:51:14;18.75;;;6.80;;
55833;SDS011;41761;43.004;-0.066;2022-11-02T09:56:13;23.87;;;6.23;;
55833;SDS011;41761;43.004;-0.066;2022-11-02T09:58:41;21.73;;;5.38;;
55833;SDS011;41761;43.004;-0.066;2022-11-02T10:01:11;22.63;;;5.38;;
55833;SDS011;41761;43.004;-0.066;2022-11-02T10:03:58;16.27;;;4.85;;
55833;SDS011;41761;43.004;-0.066;2022-11-02T10:06:29;19.58;;;5.05;;
55833;SDS011;41761;43.004;-0.066;2022-11-02T10:09:03;15.35;;;4.50;;
55833;SDS011;41761;43.004;-0.066;2022-11-02T10:16:47;12.05;;;4.00;;
55833;SDS011;41761;43.004;-0.066;2022-11-02T10:19:15;11.07;;;3.75;;
55833;SDS011;41761;43.004;-0.066;2022-11-02T10:21:44;16.98;;;4.45;;
55833;SDS011;41761;43.004;-0.066;2022-11-02T10:26:58;11.93;;;3.65;;
55833;SDS011;41761;43.004;-0.066;2022-11-02T10:32:10;18.67;;;4.43;;
55833;SDS011;41761;43.004;-0.066;2022-11-02T10:34:37;15.38;;;4.28;;
55833;SDS011;41761;43.004;-0.066;2022-11-02T10:39:42;14.93;;;3.83;;
55833;SDS011;41761;43.004;-0.066;2022-11-02T10:47:21;15.70;;;4.15;;
55833;SDS011;41761;43.004;-0.066;2022-11-02T10:52:34;20.83;;;4.97;;
55833;SDS011;41761;43.004;-0.066;2022-11-02T10:55:01;10.90;;;4.60;;
55833;SDS011;41761;43.004;-0.066;2022-11-02T10:57:28;10.10;;;4.05;;
55833;SDS011;41761;43.004;-0.066;2022-11-02T11:02:40;14.20;;;3.60;;
55833;SDS011;41761;43.004;-0.066;2022-11-02T11:05:12;9.27;;;4.07;;
55833;SDS011;41761;43.004;-0.066;2022-11-02T11:07:41;20.17;;;4.28;;
55833;SDS011;41761;43.004;-0.066;2022-11-02T11:10:13;15.95;;;4.93;;
55833;SDS011;41761;43.004;-0.066;2022-11-02T11:12:40;9.50;;;4.38;;
55833;SDS011;41761;43.004;-0.066;2022-11-02T11:15:14;22.35;;;4.78;;
55833;SDS011;41761;43.004;-0.066;2022-11-02T11:17:46;19.15;;;4.50;;
55833;SDS011;41761;43.004;-0.066;2022-11-02T11:28:53;11.63;;;4.18;;
55833;SDS011;41761;43.004;-0.066;2022-11-02T11:31:20;14.88;;;4.32;;
55833;SDS011;41761;43.004;-0.066;2022-11-02T11:33:53;8.75;;;4.07;;
55833;SDS011;41761;43.004;-0.066;2022-11-02T11:38:50;13.15;;;4.53;;
55833;SDS011;41761;43.004;-0.066;2022-11-02T11:41:17;14.85;;;3.80;;
55833;SDS011;41761;43.004;-0.066;2022-11-02T11:43:43;11.02;;;4.05;;
55833;SDS011;41761;43.004;-0.066;2022-11-02T11:46:12;10.70;;;3.28;;
55833;SDS011;41761;43.004;-0.066;2022-11-02T11:56:37;9.18;;;3.00;;
55833;SDS011;41761;43.004;-0.066;2022-11-02T11:59:08;11.80;;;3.80;;
55833;SDS011;41761;43.004;-0.066;2022-11-02T12:01:41;12.40;;;3.40;;
55833;SDS011;41761;43.004;-0.066;2022-11-02T12:04:08;14.48;;;3.17;;
55833;SDS011;41761;43.004;-0.066;2022-11-02T12:09:13;11.50;;;3.10;;
55833;SDS011;41761;43.004;-0.066;2022-11-02T12:11:49;6.10;;;2.50;;
55833;SDS011;41761;43.004;-0.066;2022-11-02T12:14:30;11.20;;;2.67;;
55833;SDS011;41761;43.004;-0.066;2022-11-02T12:17:12;8.90;;;3.05;;
55833;SDS011;41761;43.004;-0.066;2022-11-02T12:19:50;5.63;;;3.10;;
55833;SDS011;41761;43.004;-0.066;2022-11-02T12:28:19;8.75;;;3.22;;
55833;SDS011;41761;43.004;-0.066;2022-11-02T12:36:00;10.50;;;3.00;;
55833;SDS011;41761;43.004;-0.066;2022-11-02T12:44:16;11.50;;;2.78;;
55833;SDS011;41761;43.004;-0.066;2022-11-02T12:54:31;6.10;;;2.40;;
55833;SDS011;41761;43.004;-0.066;2022-11-02T12:56:59;10.65;;;2.55;;
55833;SDS011;41761;43.004;-0.066;2022-11-02T12:59:29;8.05;;;2.72;;
55833;SDS011;41761;43.004;-0.066;2022-11-02T13:02:15;4.85;;;3.72;;
55833;SDS011;41761;43.004;-0.066;2022-11-02T13:04:51;6.28;;;2.78;;
55833;SDS011;41761;43.004;-0.066;2022-11-02T13:07:23;14.77;;;3.20;;
55833;SDS011;41761;43.004;-0.066;2022-11-02T13:09:52;13.88;;;2.97;;
55833;SDS011;41761;43.004;-0.066;2022-11-02T13:12:20;12.73;;;2.88;;
55833;SDS011;41761;43.004;-0.066;2022-11-02T13:14:47;9.40;;;3.25;;
55833;SDS011;41761;43.004;-0.066;2022-11-02T13:19:53;10.27;;;3.40;;
55833;SDS011;41761;43.004;-0.066;2022-11-02T13:22:22;8.75;;;2.45;;
55833;SDS011;41761;43.004;-0.066;2022-11-02T13:24:52;9.07;;;3.42;;
55833;SDS011;41761;43.004;-0.066;2022-11-02T13:27:30;6.78;;;2.97;;
55833;SDS011;41761;43.004;-0.066;2022-11-02T13:29:58;11.73;;;3.47;;
55833;SDS011;41761;43.004;-0.066;2022-11-02T13:34:53;8.90;;;2.47;;
55833;SDS011;41761;43.004;-0.066;2022-11-02T13:39:58;7.22;;;2.45;;
55833;SDS011;41761;43.004;-0.066;2022-11-02T13:45:17;13.30;;;2.60;;
55833;SDS011;41761;43.004;-0.066;2022-11-02T13:50:33;10.82;;;3.10;;
55833;SDS011;41761;43.004;-0.066;2022-11-02T13:53:03;10.68;;;2.47;;
55833;SDS011;41761;43.004;-0.066;2022-11-02T13:55:37;15.70;;;2.80;;
55833;SDS011;41761;43.004;-0.066;2022-11-02T13:58:05;21.95;;;3.25;;
55833;SDS011;41761;43.004;-0.066;2022-11-02T14:00:37;6.78;;;3.38;;
55833;SDS011;41761;43.004;-0.066;2022-11-02T14:03:17;7.60;;;2.53;;
55833;SDS011;41761;43.004;-0.066;2022-11-02T14:05:47;5.03;;;2.30;;
55833;SDS011;41761;43.004;-0.066;2022-11-02T14:08:48;6.97;;;2.92;;
55833;SDS011;41761;43.004;-0.066;2022-11-02T14:34:38;7.90;;;2.95;;
55833;SDS011;41761;43.004;-0.066;2022-11-02T14:37:17;11.33;;;2.70;;
55833;SDS011;41761;43.004;-0.066;2022-11-02T14:47:59;6.38;;;2.45;;
55833;SDS011;41761;43.004;-0.066;2022-11-02T14:50:26;6.38;;;2.90;;
55833;SDS011;41761;43.004;-0.066;2022-11-02T14:53:05;7.32;;;2.85;;
55833;SDS011;41761;43.004;-0.066;2022-11-02T14:55:34;12.50;;;2.42;;
55833;SDS011;41761;43.004;-0.066;2022-11-02T14:58:02;13.75;;;3.42;;
55833;SDS011;41761;43.004;-0.066;2022-11-02T15:00:36;7.90;;;2.97;;
55833;SDS011;41761;43.004;-0.066;2022-11-02T15:03:06;5.60;;;2.10;;
55833;SDS011;41761;43.004;-0.066;2022-11-02T15:05:39;7.03;;;2.55;;
55833;SDS011;41761;43.004;-0.066;2022-11-02T15:08:24;5.68;;;2.70;;
55833;SDS011;41761;43.004;-0.066;2022-11-02T15:10:51;10.25;;;2.83;;
55833;SDS011;41761;43.004;-0.066;2022-11-02T15:20:42;6.35;;;2.38;;
55833;SDS011;41761;43.004;-0.066;2022-11-02T15:23:23;12.88;;;3.00;;
55833;SDS011;41761;43.004;-0.066;2022-11-02T15:25:50;6.60;;;2.45;;
55833;SDS011;41761;43.004;-0.066;2022-11-02T15:28:19;10.13;;;2.55;;
55833;SDS011;41761;43.004;-0.066;2022-11-02T15:30:48;14.43;;;3.15;;
55833;SDS011;41761;43.004;-0.066;2022-11-02T15:36:00;14.35;;;2.67;;
55833;SDS011;41761;43.004;-0.066;2022-11-02T15:38:27;5.35;;;2.80;;
55833;SDS011;41761;43.004;-0.066;2022-11-02T15:40:55;9.55;;;2.75;;
55833;SDS011;41761;43.004;-0.066;2022-11-02T15:49:17;9.55;;;3.13;;
55833;SDS011;41761;43.004;-0.066;2022-11-02T15:51:46;11.95;;;2.83;;
55833;SDS011;41761;43.004;-0.066;2022-11-02T16:04:57;11.90;;;3.33;;
55833;SDS011;41761;43.004;-0.066;2022-11-02T16:07:25;12.07;;;3.03;;
55833;SDS011;41761;43.004;-0.066;2022-11-02T16:09:51;12.52;;;2.67;;
55833;SDS011;41761;43.004;-0.066;2022-11-02T16:12:18;17.92;;;3.10;;
55833;SDS011;41761;43.004;-0.066;2022-11-02T16:17:30;14.00;;;3.33;;
55833;SDS011;41761;43.004;-0.066;2022-11-02T16:20:10;9.85;;;2.65;;
55833;SDS011;41761;43.004;-0.066;2022-11-02T16:22:36;11.95;;;3.78;;
55833;SDS011;41761;43.004;-0.066;2022-11-02T16:25:10;25.13;;;4.55;;
55833;SDS011;41761;43.004;-0.066;2022-11-02T16:27:37;19.27;;;5.00;;
55833;SDS011;41761;43.004;-0.066;2022-11-02T16:30:03;22.10;;;6.10;;
55833;SDS011;41761;43.004;-0.066;2022-11-02T16:32:30;17.83;;;5.40;;
55833;SDS011;41761;43.004;-0.066;2022-11-02T16:34:57;14.05;;;5.88;;
55833;SDS011;41761;43.004;-0.066;2022-11-02T16:37:25;24.48;;;6.15;;
55833;SDS011;41761;43.004;-0.066;2022-11-02T16:39:51;19.98;;;6.53;;
55833;SDS011;41761;43.004;-0.066;2022-11-02T16:42:20;15.60;;;7.38;;
55833;SDS011;41761;43.004;-0.066;2022-11-02T16:44:54;32.72;;;12.57;;
55833;SDS011;41761;43.004;-0.066;2022-11-02T16:47:26;31.60;;;13.90;;
55833;SDS011;41761;43.004;-0.066;2022-11-02T16:52:24;24.88;;;8.85;;
55833;SDS011;41761;43.004;-0.066;2022-11-02T16:54:53;15.07;;;6.82;;
55833;SDS011;41761;43.004;-0.066;2022-11-02T16:57:22;18.15;;;6.60;;
55833;SDS011;41761;43.004;-0.066;2022-11-02T16:59:53;23.20;;;7.40;;
55833;SDS011;41761;43.004;-0.066;2022-11-02T17:02:26;24.35;;;5.70;;
55833;SDS011;41761;43.004;-0.066;2022-11-02T17:04:54;14.95;;;5.07;;
55833;SDS011;41761;43.004;-0.066;2022-11-02T17:10:07;17.33;;;4.95;;
55833;SDS011;41761;43.004;-0.066;2022-11-02T17:12:34;11.07;;;4.70;;
55833;SDS011;41761;43.004;-0.066;2022-11-02T17:15:03;13.20;;;4.95;;
55833;SDS011;41761;43.004;-0.066;2022-11-02T17:17:37;12.15;;;4.40;;
55833;SDS011;41761;43.004;-0.066;2022-11-02T17:22:37;17.75;;;4.63;;
55833;SDS011;41761;43.004;-0.066;2022-11-02T17:25:11;15.57;;;5.15;;
55833;SDS011;41761;43.004;-0.066;2022-11-02T17:27:38;17.27;;;5.10;;
55833;SDS011;41761;43.004;-0.066;2022-11-02T17:30:05;16.38;;;4.20;;
55833;SDS011;41761;43.004;-0.066;2022-11-02T17:32:31;11.07;;;4.40;;
55833;SDS011;41761;43.004;-0.066;2022-11-02T17:34:57;26.30;;;5.10;;
55833;SDS011;41761;43.004;-0.066;2022-11-02T17:39:49;15.82;;;5.32;;
55833;SDS011;41761;43.004;-0.066;2022-11-02T17:42:16;15.45;;;4.57;;
55833;SDS011;41761;43.004;-0.066;2022-11-02T17:46:02;15.50;;;5.05;;